Time;durP1;ratioP1;P1;durP2;ratioP2;P2;SDS_P1;SDS_P2;PMS_P1;PMS_P2;Temp;Humidity;BMP_temperature;BMP_pressure;BME280_temperature;BME280_humidity;BME280_pressure;Samples;Min_cycle;Max_cycle;Signal;HPM_P1;HPM_P2
2022/08/22 00:03:34;;;;;;;2.67;1.60;;;;;;;18.73;100.00;94034.09;5057478;28;20074;-91
2022/08/22 00:06:14;;;;;;;3.13;1.30;;;;;;;18.75;100.00;94026.56;5056206;28;20108;-91
2022/08/22 00:09:10;;;;;;;2.38;1.33;;;;;;;18.71;100.00;94028.31;5039858;28;20036;-91
2022/08/22 00:11:42;;;;;;;2.40;1.25;;;;;;;18.55;100.00;94023.63;5039657;28;20492;-92
2022/08/22 00:14:10;;;;;;;2.33;1.40;;;;;;;18.77;100.00;94021.72;5055987;28;20040;-90
2022/08/22 00:16:48;;;;;;;6.50;1.40;;;;;;;18.71;100.00;94026.44;5057093;28;20037;-90
2022/08/22 00:19:40;;;;;;;1.40;1.27;;;;;;;18.67;100.00;94020.25;5057162;28;20422;-91
2022/08/22 00:22:28;;;;;;;2.75;1.48;;;;;;;18.74;100.00;94022.38;5055965;28;20029;-90
2022/08/22 00:25:06;;;;;;;1.88;1.50;;;;;;;18.65;100.00;94017.16;5039396;28;20139;-91
2022/08/22 00:27:47;;;;;;;3.20;1.63;;;;;;;18.63;100.00;94019.34;5057367;28;20032;-91
2022/08/22 00:30:15;;;;;;;4.25;1.38;;;;;;;18.82;100.00;94020.72;5056455;28;20078;-91
2022/08/22 00:32:58;;;;;;;6.43;1.33;;;;;;;18.89;100.00;94019.09;5055121;28;20051;-91
2022/08/22 00:35:45;;;;;;;2.50;1.63;;;;;;;18.82;100.00;94012.78;5056053;28;20112;-91
2022/08/22 00:38:40;;;;;;;2.13;1.30;;;;;;;18.93;100.00;94013.88;5039354;28;20275;-91
2022/08/22 00:41:34;;;;;;;3.47;1.42;;;;;;;18.72;100.00;94013.94;5055683;28;20043;-92
2022/08/22 00:44:24;;;;;;;1.60;1.40;;;;;;;18.68;100.00;94013.06;5056752;28;20427;-91
2022/08/22 00:47:14;;;;;;;2.85;1.27;;;;;;;18.62;100.00;94025.75;5056551;28;20037;-90
2022/08/22 00:49:47;;;;;;;5.13;1.55;;;;;;;18.56;100.00;94017.22;5056888;28;20040;-90
2022/08/22 00:52:31;;;;;;;1.85;1.25;;;;;;;18.57;100.00;94016.09;5055722;28;20135;-90
2022/08/22 00:54:56;;;;;;;;;;;;;;;18.34;100.00;94016.47;5056050;28;20056;-91
2022/08/22 00:57:43;;;;;;;2.83;1.47;;;;;;;18.45;100.00;94019.50;5057283;28;19955;-91
2022/08/22 01:00:16;;;;;;;2.03;1.27;;;;;;;18.35;100.00;94012.72;5056900;28;20259;-91
2022/08/22 01:02:47;;;;;;;1.60;1.27;;;;;;;18.25;100.00;94002.50;5055599;28;20116;-90
2022/08/22 01:05:34;;;;;;;4.22;1.92;;;;;;;18.07;100.00;94004.50;5056281;28;20029;-91
2022/08/22 01:08:11;;;;;;;2.50;1.52;;;;;;;18.03;100.00;94001.75;5056813;28;20033;-90
2022/08/22 01:14:31;;;;;;;2.03;1.40;;;;;;;18.12;100.00;94003.53;5047329;28;20043;-90
2022/08/22 01:17:24;;;;;;;1.85;1.38;;;;;;;18.13;100.00;94003.22;5013635;28;20084;-89
2022/08/22 01:20:17;;;;;;;2.35;1.77;;;;;;;18.09;100.00;93994.38;5040620;28;20036;-90
2022/08/22 01:23:01;;;;;;;2.63;1.60;;;;;;;18.07;100.00;93989.38;5046691;28;20037;-89
2022/08/22 01:26:02;;;;;;;6.45;1.70;;;;;;;18.14;100.00;93986.22;5036496;28;20041;-88
2022/08/22 01:28:55;;;;;;;1.90;1.40;;;;;;;18.15;100.00;93976.41;5013622;28;20080;-88
2022/08/22 01:32:01;;;;;;;2.28;1.50;;;;;;;18.17;100.00;93979.50;5055515;28;20045;-89
2022/08/22 01:34:53;;;;;;;1.90;1.25;;;;;;;18.16;100.00;93980.59;5050500;28;20033;-89
2022/08/22 01:37:31;;;;;;;6.03;1.38;;;;;;;18.13;100.00;93978.56;5055527;28;20307;-89
2022/08/22 01:40:32;;;;;;;1.90;1.40;;;;;;;18.26;100.00;93974.88;5056184;28;20025;-89
2022/08/22 01:43:16;;;;;;;1.90;1.20;;;;;;;18.51;100.00;93973.13;5057440;28;20032;-89
2022/08/22 01:46:11;;;;;;;3.50;1.40;;;;;;;18.69;100.00;93966.84;5059784;28;20029;-90
2022/08/22 01:48:43;;;;;;;2.22;1.58;;;;;;;18.62;100.00;93964.72;5060283;28;20123;-91
2022/08/22 01:51:35;;;;;;;2.15;1.30;;;;;;;18.61;100.00;93963.16;5059119;28;20418;-91
2022/08/22 01:54:22;;;;;;;2.17;1.60;;;;;;;18.44;100.00;93962.25;5042548;28;20021;-91
2022/08/22 01:56:48;;;;;;;4.45;1.30;;;;;;;18.47;100.00;93969.53;5058840;28;20029;-91
2022/08/22 01:59:29;;;;;;;3.03;1.40;;;;;;;18.31;100.00;93974.69;5058565;28;20345;-92
2022/08/22 02:02:07;;;;;;;1.60;1.33;;;;;;;18.25;100.00;93977.88;5058676;28;20116;-90
2022/08/22 02:04:51;;;;;;;7.60;2.30;;;;;;;18.11;100.00;93976.28;5058663;28;20025;-91
2022/08/22 02:07:24;;;;;;;2.08;1.45;;;;;;;18.09;100.00;93978.47;5059644;28;20082;-91
2022/08/22 02:10:12;;;;;;;1.83;1.40;;;;;;;18.10;100.00;93972.06;5058880;28;20024;-90
2022/08/22 02:12:47;;;;;;;3.65;1.40;;;;;;;18.07;100.00;93978.00;5058509;28;20032;-91
2022/08/22 02:16:03;;;;;;;4.72;1.98;;;;;;;17.88;100.00;93981.84;5041928;28;20021;-91
2022/08/22 02:18:40;;;;;;;3.38;1.75;;;;;;;17.88;100.00;93973.91;5033181;28;20036;-90
2022/08/22 02:21:13;;;;;;;3.70;1.60;;;;;;;17.94;100.00;93966.53;5058460;28;20021;-91
2022/08/22 02:24:02;;;;;;;6.55;1.50;;;;;;;17.98;100.00;93969.31;5041702;28;20029;-91
2022/08/22 02:26:46;;;;;;;2.63;1.48;;;;;;;17.93;100.00;93972.94;5041647;28;20032;-90
2022/08/22 02:29:16;;;;;;;1.77;1.13;;;;;;;17.88;100.00;93973.91;5041664;28;20029;-90
2022/08/22 02:31:55;;;;;;;4.07;1.60;;;;;;;18.00;100.00;93972.44;5041891;28;20024;-91
2022/08/22 02:34:27;;;;;;;2.13;1.40;;;;;;;18.01;100.00;93972.13;5058333;28;20426;-90
2022/08/22 02:37:01;;;;;;;2.83;1.42;;;;;;;18.03;100.00;93969.16;5058794;28;20029;-91
2022/08/22 02:39:40;;;;;;;2.80;1.92;;;;;;;18.09;100.00;93970.53;5042315;28;20025;-91
2022/08/22 02:42:15;;;;;;;8.52;2.00;;;;;;;18.17;100.00;93963.59;5059769;28;20029;-90
2022/08/22 02:44:57;;;;;;;2.08;1.50;;;;;;;18.29;100.00;93962.84;5058366;28;20253;-91
2022/08/22 02:47:45;;;;;;;2.60;1.67;;;;;;;18.20;100.00;93962.94;5041936;28;20058;-89
2022/08/22 02:50:18;;;;;;;2.72;1.27;;;;;;;18.15;100.00;93968.44;5041877;28;20028;-90
2022/08/22 02:52:55;;;;;;;3.85;1.65;;;;;;;18.16;100.00;93964.69;5041953;28;20033;-90
2022/08/22 02:55:42;;;;;;;3.65;1.90;;;;;;;18.34;100.00;93960.78;5040407;28;20029;-90
2022/08/22 02:58:19;;;;;;;5.32;1.50;;;;;;;18.41;100.00;93960.25;5058521;28;20029;-90
2022/08/22 03:01:16;;;;;;;3.00;1.55;;;;;;;18.32;100.00;93970.16;5058349;28;20028;-91
2022/08/22 03:03:45;;;;;;;4.75;1.52;;;;;;;18.12;100.00;93964.56;5040932;28;20029;-90
2022/08/22 03:06:44;;;;;;;5.18;1.48;;;;;;;18.25;100.00;93967.28;5057665;28;20025;-90
2022/08/22 03:09:26;;;;;;;2.05;1.40;;;;;;;18.20;100.00;93961.03;5046283;28;20087;-90
2022/08/22 03:12:05;;;;;;;2.47;1.55;;;;;;;18.22;100.00;93958.88;5040761;28;20052;-92
2022/08/22 03:14:42;;;;;;;2.33;1.42;;;;;;;18.22;100.00;93966.81;5040537;28;20484;-91
2022/08/22 03:17:21;;;;;;;8.55;1.70;;;;;;;18.23;100.00;93963.06;5057204;28;20025;-91
2022/08/22 03:20:28;;;;;;;2.70;1.40;;;;;;;18.33;100.00;93956.59;5041221;28;20033;-91
2022/08/22 03:23:00;;;;;;;2.33;1.60;;;;;;;18.40;100.00;93956.06;5029535;28;20028;-90
2022/08/22 03:25:32;;;;;;;4.10;1.50;;;;;;;18.44;100.00;93964.13;5040545;28;20186;-90
2022/08/22 03:28:12;;;;;;;1.88;1.52;;;;;;;18.36;100.00;93955.91;5040919;28;20025;-89
2022/08/22 03:30:56;;;;;;;2.10;1.48;;;;;;;18.43;100.00;93962.56;5057136;28;20052;-89
2022/08/22 03:33:24;;;;;;;1.92;1.50;;;;;;;18.54;100.00;93957.63;5040306;28;20021;-90
2022/08/22 03:35:59;;;;;;;5.20;1.67;;;;;;;18.44;100.00;93954.28;5040289;28;20021;-89
2022/08/22 03:38:30;;;;;;;5.47;2.03;;;;;;;18.36;100.00;93960.44;5040511;28;20025;-90
2022/08/22 03:41:11;;;;;;;8.02;1.80;;;;;;;18.11;100.00;93955.06;5057713;28;20106;-90
2022/08/22 03:44:01;;;;;;;3.60;1.42;;;;;;;18.17;100.00;93958.28;5056700;28;20124;-89
2022/08/22 03:46:33;;;;;;;3.33;1.48;;;;;;;18.08;100.00;93959.13;5056564;28;20029;-89
2022/08/22 03:49:04;;;;;;;4.03;1.50;;;;;;;17.78;100.00;93963.69;5056645;28;20025;-88
2022/08/22 03:52:05;;;;;;;3.75;1.80;;;;;;;17.52;100.00;93962.00;5057506;28;20044;-89
2022/08/22 03:54:43;;;;;;;2.03;1.45;;;;;;;17.60;100.00;93949.81;5034502;28;20125;-88
2022/08/22 03:57:39;;;;;;;2.08;1.65;;;;;;;17.66;100.00;93964.41;5040461;28;20318;-90
2022/08/22 04:00:09;;;;;;;1.50;1.40;;;;;;;17.52;100.00;93957.47;5057501;28;20079;-90
2022/08/22 04:02:40;;;;;;;2.45;1.40;;;;;;;17.61;100.00;93959.28;5057194;28;20024;-90
2022/08/22 04:05:14;;;;;;;2.53;1.48;;;;;;;17.57;100.00;93959.16;5057265;28;20037;-89
2022/08/22 04:08:15;;;;;;;3.88;1.73;;;;;;;17.62;100.00;93952.91;5057296;28;20020;-90
2022/08/22 04:10:55;;;;;;;1.83;1.50;;;;;;;17.58;100.00;93957.28;5044375;28;20123;-90
2022/08/22 04:14:15;;;;;;;2.90;1.67;;;;;;;17.46;100.00;93963.28;5055967;28;20021;-91
2022/08/22 04:17:28;;;;;;;1.73;1.33;;;;;;;17.57;100.00;93958.38;5015459;28;20041;-89
2022/08/22 04:20:19;;;;;;;3.55;1.70;;;;;;;17.64;100.00;93958.66;5052768;28;20044;-92
2022/08/22 04:23:32;;;;;;;2.22;1.40;;;;;;;17.78;100.00;93959.16;5057409;28;20025;-91
2022/08/22 04:26:01;;;;;;;2.35;1.38;;;;;;;17.86;100.00;93957.56;5038267;28;20157;-92
2022/08/22 04:28:34;;;;;;;2.33;1.50;;;;;;;17.75;100.00;93961.69;5057054;28;20072;-92
2022/08/22 04:31:11;;;;;;;3.53;1.65;;;;;;;17.87;100.00;93961.75;5057076;28;20032;-91
2022/08/22 04:33:43;;;;;;;2.70;1.40;;;;;;;17.81;100.00;93968.38;5056980;28;20369;-94
2022/08/22 04:36:20;;;;;;;4.03;1.65;;;;;;;18.26;100.00;93958.97;5057057;28;20029;-91
2022/08/22 04:39:18;;;;;;;2.97;1.60;;;;;;;17.75;100.00;93964.34;5055947;28;20059;-91
2022/08/22 04:41:55;;;;;;;2.72;1.73;;;;;;;17.75;100.00;93959.81;5034375;28;20045;-93
2022/08/22 04:44:36;;;;;;;4.20;1.60;;;;;;;17.66;100.00;93965.19;5056097;28;20460;-91
2022/08/22 04:47:28;;;;;;;2.38;1.60;;;;;;;17.80;100.00;93967.56;5056081;28;20053;-93
2022/08/22 04:50:13;;;;;;;1.52;1.30;;;;;;;18.01;100.00;93961.50;5031071;28;20068;-93
2022/08/22 04:53:17;;;;;;;4.20;1.63;;;;;;;18.22;100.00;93971.34;5055650;28;20029;-94
2022/08/22 04:55:54;;;;;;;1.85;1.27;;;;;;;18.35;100.00;93959.69;5039261;28;20031;-92
2022/08/22 04:58:45;;;;;;;2.70;1.30;;;;;;;18.41;100.00;93967.41;5039113;28;20051;-90
2022/08/22 05:01:15;;;;;;;4.95;1.63;;;;;;;18.70;100.00;93966.53;5055808;28;20032;-92
2022/08/22 05:03:57;;;;;;;1.30;1.20;;;;;;;18.81;100.00;93974.06;5056696;28;20039;-91
2022/08/22 05:06:26;;;;;;;3.47;1.25;;;;;;;18.75;100.00;93971.59;5039451;28;20091;-93
2022/08/22 05:08:52;;;;;;;2.00;1.42;;;;;;;18.48;100.00;93978.28;5055797;28;20035;-92
2022/08/22 05:11:20;;;;;;;1.90;1.40;;;;;;;18.31;100.00;93977.34;5038970;28;20040;-92
2022/08/22 05:13:58;;;;;;;7.55;1.40;;;;;;;18.41;100.00;93973.50;5039109;28;20083;-92
2022/08/22 05:16:58;;;;;;;2.83;1.63;;;;;;;18.56;100.00;93974.00;5055930;28;20079;-92
2022/08/22 05:19:49;;;;;;;3.25;1.70;;;;;;;18.96;100.00;93975.28;5054572;28;20440;-92
2022/08/22 05:29:19;;;;;;;;;;;;;;;;;;;;;
2022/08/22 05:32:06;;;;;;;4.80;1.33;;;;;;;19.27;100.00;93982.75;5059235;28;20023;-92
2022/08/22 05:34:38;;;;;;;4.32;1.50;;;;;;;19.10;100.00;93986.41;5059117;28;20345;-91
2022/08/22 05:37:35;;;;;;;2.67;1.33;;;;;;;18.61;100.00;93979.88;5049067;28;20124;-91
2022/08/22 05:41:11;;;;;;;;;;;;;;;;;;;;;
2022/08/22 05:47:10;;;;;;;2.63;1.50;;;;;;;18.32;100.00;93983.41;5059345;28;20037;-93
2022/08/22 05:50:00;;;;;;;3.20;1.40;;;;;;;18.62;100.00;93980.63;5059117;28;20033;-92
2022/08/22 05:52:53;;;;;;;2.03;1.48;;;;;;;18.94;100.00;93978.28;5059659;28;20295;-92
2022/08/22 05:55:33;;;;;;;3.22;1.50;;;;;;;18.77;100.00;93985.31;5060112;28;20025;-93
2022/08/22 05:58:12;;;;;;;2.33;1.50;;;;;;;18.74;100.00;93985.97;5059857;28;20040;-92
2022/08/22 06:00:42;;;;;;;1.67;1.45;;;;;;;18.76;100.00;93985.66;5058612;28;20025;-92
2022/08/22 06:03:32;;;;;;;3.65;1.33;;;;;;;19.14;100.00;93986.53;5042189;28;20326;-91
2022/08/22 06:06:02;;;;;;;4.32;1.33;;;;;;;19.67;100.00;93978.63;5058730;28;20029;-91
2022/08/22 06:08:34;;;;;;;2.55;1.23;;;;;;;20.17;100.00;93991.88;5058225;28;20460;-90
2022/08/22 06:11:24;;;;;;;1.55;1.35;;;;;;;20.28;100.00;93992.91;5057669;28;20020;-93
2022/08/22 06:14:39;;;;;;;;;;;;;;;;;;;;;
2022/08/22 06:17:07;;;;;;;;;;;;;;;21.25;100.00;93999.22;5059824;28;20308;-91
2022/08/22 06:19:47;;;;;;;3.50;1.20;;;;;;;21.37;100.00;94001.00;5059236;28;19916;-91
2022/08/22 06:22:28;;;;;;;2.25;1.40;;;;;;;21.62;100.00;93992.81;5059217;28;20051;-92
2022/08/22 06:24:59;;;;;;;5.13;1.60;;;;;;;21.00;100.00;93994.03;5057894;28;20023;-91
2022/08/22 06:27:33;;;;;;;3.75;1.40;;;;;;;21.53;100.00;93987.69;5058057;28;20082;-91
2022/08/22 06:30:01;;;;;;;4.05;1.30;;;;;;;21.67;100.00;93992.56;5056761;28;20365;-90
2022/08/22 06:36:29;;;;;;;2.35;1.10;;;;;;;21.79;100.00;93994.34;5054287;28;20033;-91
2022/08/22 06:38:18;;;;;;;7.40;1.58;;;;;;;21.23;100.00;93998.00;5057835;28;20116;-91
2022/08/22 06:40:44;;;;;;;3.70;1.50;;;;;;;21.33;100.00;94000.16;5057748;28;20334;-90
2022/08/22 06:43:10;;;;;;;3.90;1.40;;;;;;;21.39;100.00;94006.00;5058853;28;20028;-91
2022/08/22 06:45:36;;;;;;;1.77;1.20;;;;;;;21.67;100.00;93991.81;5057774;28;20358;-91
2022/08/22 06:48:05;;;;;;;4.93;1.52;;;;;;;21.49;100.00;93997.47;5057535;28;20067;-92
2022/08/22 06:50:40;;;;;;;1.80;1.40;;;;;;;21.50;100.00;94004.34;5058767;28;20020;-91
2022/08/22 06:53:20;;;;;;;1.05;0.95;;;;;;;21.38;100.00;93997.22;5057432;28;20029;-92
2022/08/22 06:55:53;;;;;;;2.78;1.52;;;;;;;21.25;100.00;94001.09;5057568;28;20017;-92
2022/08/22 06:58:24;;;;;;;;;;;;;;;21.36;100.00;93998.69;5057682;28;20025;-92
2022/08/22 07:01:16;;;;;;;3.60;1.60;;;;;;;21.58;100.00;93999.94;5058425;28;19908;-91
2022/08/22 07:04:00;;;;;;;3.95;1.40;;;;;;;21.60;100.00;94003.81;5057422;28;20032;-92
2022/08/22 07:06:40;;;;;;;2.25;1.48;;;;;;;21.30;100.00;94009.59;5057526;28;20513;-92
2022/08/22 07:09:06;;;;;;;5.28;1.38;;;;;;;21.54;100.00;94010.53;5057303;28;20052;-91
2022/08/22 07:11:36;;;;;;;1.60;1.40;;;;;;;21.59;100.00;93999.59;5057242;28;20319;-92
2022/08/22 07:14:10;;;;;;;2.75;1.38;;;;;;;21.49;100.00;94004.69;5057690;28;20067;-92
2022/08/22 07:16:42;;;;;;;5.25;1.50;;;;;;;21.50;100.00;94004.34;5041586;28;20025;-92
2022/08/22 07:19:17;;;;;;;3.72;1.50;;;;;;;21.83;100.00;94003.22;5057270;28;20025;-92
2022/08/22 07:21:45;;;;;;;5.93;1.30;;;;;;;21.84;100.00;94003.97;5057160;28;20025;-93
2022/08/22 07:24:17;;;;;;;2.90;1.50;;;;;;;21.97;100.00;94009.97;5057331;28;20330;-91
2022/08/22 07:27:10;;;;;;;1.90;1.30;;;;;;;21.63;100.00;94006.91;5058300;28;20111;-93
2022/08/22 07:29:48;;;;;;;4.20;1.30;;;;;;;21.61;100.00;94002.69;5058299;28;20035;-91
2022/08/22 07:32:26;;;;;;;2.90;1.55;;;;;;;21.81;100.00;94000.13;5058308;28;20438;-93
2022/08/22 07:35:11;;;;;;;3.40;1.58;;;;;;;21.56;100.00;94010.97;5057311;28;20021;-92
2022/08/22 07:37:59;;;;;;;5.05;1.67;;;;;;;21.48;100.00;94011.91;5058114;28;20033;-93
2022/08/22 07:40:39;;;;;;;4.35;1.77;;;;;;;21.71;100.00;94006.75;5056453;28;20111;-91
2022/08/22 07:43:32;;;;;;;104.53;93.38;;;;;;;21.94;100.00;94006.09;5040539;28;20131;-93
2022/08/22 07:45:58;;;;;;;3.20;1.90;;;;;;;22.19;100.00;94013.84;5056648;28;20032;-91
2022/08/22 07:48:51;;;;;;;4.07;1.20;;;;;;;22.58;100.00;94015.78;5056315;28;20127;-92
2022/08/22 07:52:03;;;;;;;1.88;1.27;;;;;;;22.87;100.00;94013.63;5056841;28;20028;-92
2022/08/22 07:54:45;;;;;;;;;;;;;;;;;;;;;
2022/08/22 07:57:31;;;;;;;;;;;;;;;;;;;;;
2022/08/22 08:00:03;;;;;;;3.10;1.60;;;;;;;23.11;100.00;94009.09;5059282;28;20105;-93
2022/08/22 08:02:30;;;;;;;4.10;1.90;;;;;;;23.05;100.00;94010.50;5056914;28;20434;-91
2022/08/22 08:04:59;;;;;;;2.17;1.20;;;;;;;23.15;100.00;94016.00;5056419;28;20091;-93
2022/08/22 08:07:33;;;;;;;2.17;1.58;;;;;;;23.23;100.00;94011.56;5056554;28;20115;-95
2022/08/22 08:10:06;;;;;;;2.85;1.40;;;;;;;23.21;100.00;94019.16;5056879;28;20031;-93
2022/08/22 08:12:47;;;;;;;2.97;1.42;;;;;;;23.29;100.00;94017.41;5044502;28;20037;-92
2022/08/22 08:15:26;;;;;;;4.45;1.50;;;;;;;23.39;100.00;94013.38;5036354;28;20436;-91
2022/08/22 08:18:19;;;;;;;;;;;;;;;;;;;;;
2022/08/22 08:21:37;;;;;;;1.55;0.95;;;;;;;23.75;100.00;94015.81;5036521;28;20028;-93
2022/08/22 08:24:05;;;;;;;4.72;1.60;;;;;;;23.66;100.00;94013.38;5026183;28;20501;-91
2022/08/22 08:28:32;;;;;;;2.92;1.67;;;;;;;23.71;100.00;94029.91;5035988;28;20029;-93
2022/08/22 08:29:59;;;;;;;;;;;;;;;;;;;;;
2022/08/22 08:32:41;;;;;;;3.42;1.40;;;;;;;24.23;100.00;94015.31;5036134;28;20021;-91
2022/08/22 08:35:20;;;;;;;4.72;1.92;;;;;;;23.99;100.00;94017.31;5037579;28;20021;-91
2022/08/22 08:38:07;;;;;;;5.78;1.77;;;;;;;23.95;100.00;94016.47;5035906;28;20033;-91
2022/08/22 08:40:33;;;;;;;1.27;1.08;;;;;;;24.11;100.00;94019.78;5019646;28;20458;-93
2022/08/22 08:47:21;;;;;;;;;;;;;;;;;;;;;
2022/08/22 08:50:38;;;;;;;1.77;1.13;;;;;;;24.58;100.00;94022.25;5034424;28;20038;-92
2022/08/22 08:53:42;;;;;;;3.17;1.20;;;;;;;24.73;100.00;94023.16;5000647;28;20046;-93
2022/08/22 08:56:53;;;;;;;0.98;0.70;;;;;;;24.96;100.00;94020.38;5034921;28;20044;-93
2022/08/22 08:59:41;;;;;;;4.63;1.13;;;;;;;24.96;100.00;94017.72;5035779;28;20033;-92
2022/08/22 09:02:48;;;;;;;2.65;1.00;;;;;;;25.12;87.75;94025.50;5035778;28;20128;-90
2022/08/22 09:05:24;;;;;;;0.70;0.60;;;;;;;25.10;72.48;94025.09;4978981;28;20142;-90
2022/08/22 09:08:28;;;;;;;1.15;0.77;;;;;;;25.07;75.00;94025.84;5029597;28;20371;-91
2022/08/22 09:10:54;;;;;;;;;;;;;;;24.67;63.83;94011.25;5000444;28;20045;-90
2022/08/22 09:13:19;;;;;;;2.35;0.50;;;;;;;24.75;68.88;94018.22;5035733;28;19935;-92
2022/08/22 09:15:48;;;;;;;2.28;0.68;;;;;;;24.97;81.52;94023.81;5035584;28;20027;-93
2022/08/22 09:18:32;;;;;;;2.25;0.70;;;;;;;25.19;85.98;94022.13;5036489;28;20029;-89
2022/08/22 09:21:24;;;;;;;3.95;1.10;;;;;;;25.40;80.69;94016.16;5036468;28;20112;-89
2022/08/22 09:24:01;;;;;;;0.70;0.60;;;;;;;25.31;71.69;94014.94;5035242;28;20034;-90
2022/08/22 09:26:52;;;;;;;3.40;0.73;;;;;;;25.38;70.66;94014.97;5036578;28;20090;-91
2022/08/22 09:29:41;;;;;;;0.73;0.60;;;;;;;25.47;68.59;94012.75;5019226;28;20510;-90
2022/08/22 09:32:12;;;;;;;1.35;0.63;;;;;;;25.97;69.92;94016.97;5036396;28;20025;-91
2022/08/22 09:35:17;;;;;;;1.92;0.68;;;;;;;25.95;66.92;93997.75;5035679;28;20025;-91
2022/08/22 09:38:05;;;;;;;1.13;0.57;;;;;;;26.51;68.23;94003.03;5032337;28;20041;-92
2022/08/22 09:40:44;;;;;;;1.80;0.63;;;;;;;26.63;62.29;93996.56;5036088;28;20041;-92
2022/08/22 09:43:14;;;;;;;1.25;0.77;;;;;;;26.76;69.73;93995.06;5036593;28;20091;-92
2022/08/22 09:46:03;;;;;;;3.05;0.70;;;;;;;26.60;70.31;93994.59;5019092;28;20045;-92
2022/08/22 09:49:00;;;;;;;3.47;0.70;;;;;;;26.53;72.62;94004.19;5034894;28;20033;-92
2022/08/22 09:51:39;;;;;;;0.80;0.60;;;;;;;26.09;71.09;93997.09;5036429;28;20044;-92
2022/08/22 09:54:24;;;;;;;1.45;0.93;;;;;;;26.11;74.93;94000.94;5018842;28;20025;-91
2022/08/22 09:56:52;;;;;;;1.05;0.85;;;;;;;25.77;76.38;93995.75;5036117;28;20064;-90
2022/08/22 09:59:21;;;;;;;2.47;0.60;;;;;;;25.77;75.42;93995.00;5035113;28;20050;-90
2022/08/22 10:02:02;;;;;;;3.25;0.70;;;;;;;25.49;69.11;93994.41;5034692;28;20427;-91
2022/08/22 10:04:41;;;;;;;3.65;0.70;;;;;;;25.55;74.40;93992.16;5037121;28;20034;-91
2022/08/22 10:07:16;;;;;;;2.13;0.70;;;;;;;25.63;69.50;93992.97;5022299;28;20028;-91
2022/08/22 10:10:07;;;;;;;1.00;0.80;;;;;;;25.51;65.71;93991.38;5039793;28;20060;-93
2022/08/22 10:12:59;;;;;;;0.80;0.73;;;;;;;25.64;72.80;93981.09;5040792;28;20079;-90
2022/08/22 10:15:39;;;;;;;2.67;1.00;;;;;;;25.49;68.54;93985.63;5038843;28;20116;-92
2022/08/22 10:18:13;;;;;;;1.08;0.80;;;;;;;25.81;74.29;93990.41;5038650;28;20052;-93
2022/08/22 10:20:57;;;;;;;1.35;0.70;;;;;;;25.83;74.31;93985.44;5039580;28;20099;-93
2022/08/22 10:23:52;;;;;;;2.55;1.10;;;;;;;25.78;74.90;93991.16;5038660;28;20033;-91
2022/08/22 10:26:30;;;;;;;1.73;1.33;;;;;;;25.85;73.90;93988.50;5036925;28;20124;-91
2022/08/22 10:29:33;;;;;;;3.83;0.90;;;;;;;25.77;74.35;93993.06;5038287;28;20025;-92
2022/08/22 10:32:30;;;;;;;2.10;0.90;;;;;;;25.86;78.70;93983.94;5038486;28;20025;-91
2022/08/22 10:35:02;;;;;;;3.78;1.08;;;;;;;25.48;69.01;93976.78;5038460;28;20036;-92
2022/08/22 10:37:36;;;;;;;1.13;0.80;;;;;;;25.57;69.79;93976.47;5022010;28;20033;-90
2022/08/22 10:40:55;;;;;;;0.95;0.82;;;;;;;25.81;66.45;93977.75;5038241;28;20075;-91
2022/08/22 10:43:37;;;;;;;3.95;1.10;;;;;;;26.02;69.72;93972.88;5038341;28;20029;-90
2022/08/22 10:46:09;;;;;;;1.35;0.90;;;;;;;25.98;66.85;93981.69;5038054;28;20033;-92
2022/08/22 10:48:43;;;;;;;1.25;0.75;;;;;;;26.15;65.22;93967.97;5021737;28;20036;-94
2022/08/22 10:51:43;;;;;;;2.55;0.98;;;;;;;26.13;66.64;93970.25;5038710;28;20427;-93
2022/08/22 10:54:47;;;;;;;1.20;0.95;;;;;;;26.28;69.90;93961.16;5038057;28;20021;-94
2022/08/22 10:57:30;;;;;;;3.75;0.90;;;;;;;26.18;62.54;93962.66;5036674;28;20037;-94
2022/08/22 10:59:59;;;;;;;1.63;1.10;;;;;;;26.03;62.83;93961.78;5022980;28;20024;-92
2022/08/22 11:02:40;;;;;;;1.40;1.00;;;;;;;25.79;69.69;93969.31;5037608;28;20458;-89
2022/08/22 11:05:20;;;;;;;2.22;1.40;;;;;;;25.57;67.51;93964.97;5038668;28;20029;-92
2022/08/22 11:08:09;;;;;;;2.75;1.30;;;;;;;25.85;70.33;93960.94;5038416;28;20025;-92
2022/08/22 11:10:50;;;;;;;1.98;1.00;;;;;;;26.54;70.76;93968.13;5027824;28;20052;-91
2022/08/22 11:13:27;;;;;;;1.50;0.70;;;;;;;26.58;80.42;93961.97;5021361;28;20029;-93
2022/08/22 11:15:58;;;;;;;3.50;1.25;;;;;;;26.35;70.86;93965.78;5037052;28;20021;-88
2022/08/22 11:18:57;;;;;;;6.15;1.20;;;;;;;26.15;68.10;93963.34;5038563;28;20036;-91
2022/08/22 11:21:30;;;;;;;2.33;1.33;;;;;;;26.13;70.04;93959.53;5021360;28;20119;-91
2022/08/22 11:24:17;;;;;;;1.98;1.13;;;;;;;25.97;65.16;93952.56;5037188;28;20040;-93
2022/08/22 11:26:49;;;;;;;3.85;1.25;;;;;;;26.10;68.49;93959.09;5037313;28;20037;-90
2022/08/22 11:29:55;;;;;;;2.93;1.23;;;;;;;26.78;71.28;93955.13;5024939;28;20024;-91
2022/08/22 11:32:38;;;;;;;1.60;1.10;;;;;;;26.80;71.44;93965.47;5041089;28;20025;-91
2022/08/22 11:35:10;;;;;;;1.25;1.13;;;;;;;26.63;69.81;93961.63;5060650;28;20024;-93
2022/08/22 11:49:50;;;;;;;2.40;1.10;;;;;;;26.70;71.88;93958.19;5021649;27;1486934;-90
2022/08/22 11:52:41;;;;;;;2.58;1.10;;;;;;;27.14;65.44;93956.34;5040085;28;20079;-87
2022/08/22 11:55:23;;;;;;;4.68;1.08;;;;;;;27.32;61.33;93959.78;5074232;28;20028;-88
2022/08/22 11:58:06;;;;;;;;;;;;;;;;;;;;;
2022/08/22 12:00:39;;;;;;;1.48;1.08;;;;;;;25.95;62.98;93960.97;5057654;28;20027;-89
2022/08/22 12:03:25;;;;;;;1.67;1.00;;;;;;;26.33;63.72;93954.66;5055999;28;20449;-87
2022/08/22 12:06:03;;;;;;;2.20;0.70;;;;;;;26.74;67.87;93948.97;5056207;28;20021;-90
2022/08/22 12:08:31;;;;;;;1.35;0.90;;;;;;;26.05;63.31;93951.44;5073367;28;20036;-87
2022/08/22 12:11:14;;;;;;;1.90;1.00;;;;;;;26.25;62.06;93956.50;5055950;28;20036;-86
2022/08/22 12:14:04;;;;;;;1.75;0.77;;;;;;;25.33;68.88;93964.41;5040462;28;20042;-87
2022/08/22 12:16:43;;;;;;;1.45;1.00;;;;;;;26.44;66.29;93951.97;5056108;28;20025;-87
2022/08/22 12:19:35;;;;;;;1.30;0.98;;;;;;;27.06;61.33;93950.19;5055724;28;20031;-87
2022/08/22 12:22:29;;;;;;;2.22;0.82;;;;;;;26.01;62.79;93950.66;5037458;28;20125;-87
2022/08/22 12:24:57;;;;;;;;;;;;;;;25.44;63.54;93957.19;5056231;28;20039;-90
2022/08/22 12:27:32;;;;;;;1.40;1.00;;;;;;;25.63;63.52;93961.56;5056490;28;19936;-89
2022/08/22 12:30:05;;;;;;;2.83;1.10;;;;;;;25.82;64.71;93954.38;5043970;28;20033;-88
2022/08/22 12:33:14;;;;;;;1.67;0.95;;;;;;;26.58;61.74;93951.25;5053472;28;20033;-89
2022/08/22 12:35:52;;;;;;;2.97;1.10;;;;;;;26.84;59.88;93946.69;5054390;28;20033;-87
2022/08/22 12:38:21;;;;;;;2.97;0.90;;;;;;;27.05;58.79;93945.97;5035507;28;20056;-88
2022/08/22 12:41:05;;;;;;;2.53;0.90;;;;;;;27.57;58.90;93936.75;5035775;28;20523;-87
2022/08/22 12:43:43;;;;;;;5.32;0.90;;;;;;;27.16;59.56;93940.56;5035781;28;20330;-87
2022/08/22 12:46:16;;;;;;;2.38;1.20;;;;;;;26.82;55.74;93941.69;5053038;28;20029;-89
2022/08/22 12:48:42;;;;;;;2.95;1.00;;;;;;;26.87;57.19;93938.66;5052273;28;20464;-87
2022/08/22 12:51:18;;;;;;;3.72;1.17;;;;;;;26.81;56.54;93934.78;5039668;28;20032;-87
2022/08/22 12:54:17;;;;;;;1.98;0.98;;;;;;;26.74;61.79;93943.59;5054990;28;20036;-88
2022/08/22 12:56:45;;;;;;;1.33;0.80;;;;;;;27.33;62.79;93937.13;5054750;28;20039;-86
2022/08/22 12:59:42;;;;;;;1.27;0.82;;;;;;;27.46;61.90;93934.03;5051930;28;20035;-87
2022/08/22 13:02:17;;;;;;;2.45;1.10;;;;;;;27.88;57.78;93931.66;5047404;28;20044;-88
2022/08/22 13:04:52;;;;;;;2.30;0.98;;;;;;;27.27;61.84;93940.59;5028354;28;20024;-88
2022/08/22 13:07:33;;;;;;;2.50;1.10;;;;;;;27.41;60.86;93932.50;5025176;28;20032;-88
2022/08/22 13:10:21;;;;;;;5.78;1.20;;;;;;;27.83;57.73;93926.66;5025374;28;20376;-88
2022/08/22 13:12:51;;;;;;;2.38;0.90;;;;;;;27.54;54.55;93934.81;5053895;28;20081;-88
2022/08/22 13:15:52;;;;;;;1.27;0.90;;;;;;;26.88;61.42;93921.38;5049139;28;20028;-88
2022/08/22 13:18:24;;;;;;;2.25;1.00;;;;;;;26.70;62.62;93920.56;5014775;28;20037;-88
2022/08/22 13:20:51;;;;;;;4.10;1.20;;;;;;;27.41;59.54;93919.06;5021587;28;20036;-88
2022/08/22 13:23:26;;;;;;;1.15;0.93;;;;;;;27.33;57.59;93920.22;5021375;28;20103;-86
2022/08/22 13:26:06;;;;;;;1.70;0.90;;;;;;;27.76;54.78;93912.09;5029649;28;20029;-86
2022/08/22 13:28:39;;;;;;;1.45;0.95;;;;;;;28.25;56.15;93908.09;5020314;28;20430;-86